sensor_id;sensor_type;location;lat;lon;timestamp;P1;durP1;ratioP1;P2;durP2;ratioP2
12707;SDS011;6418;50.824;4.718;2022-12-18T00:00:08;39.57;;;17.67;;
12707;SDS011;6418;50.824;4.718;2022-12-18T00:02:36;34.87;;;17.23;;
12707;SDS011;6418;50.824;4.718;2022-12-18T00:05:03;34.77;;;18.30;;
12707;SDS011;6418;50.824;4.718;2022-12-18T00:07:30;38.30;;;17.43;;
12707;SDS011;6418;50.824;4.718;2022-12-18T00:09:57;39.37;;;19.37;;
12707;SDS011;6418;50.824;4.718;2022-12-18T00:12:24;36.20;;;16.67;;
12707;SDS011;6418;50.824;4.718;2022-12-18T00:14:51;35.47;;;17.30;;
12707;SDS011;6418;50.824;4.718;2022-12-18T00:17:19;37.60;;;17.37;;
12707;SDS011;6418;50.824;4.718;2022-12-18T00:19:46;36.07;;;17.17;;
12707;SDS011;6418;50.824;4.718;2022-12-18T00:22:13;37.97;;;17.57;;
12707;SDS011;6418;50.824;4.718;2022-12-18T00:24:40;37.07;;;16.93;;
12707;SDS011;6418;50.824;4.718;2022-12-18T00:27:07;38.57;;;18.33;;
12707;SDS011;6418;50.824;4.718;2022-12-18T00:29:33;42.20;;;17.80;;
12707;SDS011;6418;50.824;4.718;2022-12-18T00:32:00;33.37;;;16.67;;
12707;SDS011;6418;50.824;4.718;2022-12-18T00:34:28;40.70;;;17.67;;
12707;SDS011;6418;50.824;4.718;2022-12-18T00:36:55;36.93;;;16.87;;
12707;SDS011;6418;50.824;4.718;2022-12-18T00:39:22;38.30;;;16.87;;
12707;SDS011;6418;50.824;4.718;2022-12-18T00:41:49;35.60;;;18.13;;
12707;SDS011;6418;50.824;4.718;2022-12-18T00:44:33;36.40;;;17.33;;
12707;SDS011;6418;50.824;4.718;2022-12-18T00:47:00;38.53;;;17.40;;
12707;SDS011;6418;50.824;4.718;2022-12-18T00:49:28;36.37;;;18.07;;
12707;SDS011;6418;50.824;4.718;2022-12-18T00:51:55;35.73;;;16.07;;
12707;SDS011;6418;50.824;4.718;2022-12-18T00:54:22;38.00;;;18.20;;
12707;SDS011;6418;50.824;4.718;2022-12-18T00:56:49;42.67;;;19.47;;
12707;SDS011;6418;50.824;4.718;2022-12-18T00:59:16;36.23;;;18.03;;
12707;SDS011;6418;50.824;4.718;2022-12-18T01:01:44;37.63;;;16.63;;
12707;SDS011;6418;50.824;4.718;2022-12-18T01:04:11;36.83;;;17.73;;
12707;SDS011;6418;50.824;4.718;2022-12-18T01:06:40;36.63;;;16.83;;
12707;SDS011;6418;50.824;4.718;2022-12-18T01:09:07;33.97;;;16.40;;
12707;SDS011;6418;50.824;4.718;2022-12-18T01:11:34;37.27;;;18.17;;
12707;SDS011;6418;50.824;4.718;2022-12-18T01:14:01;29.87;;;15.93;;
12707;SDS011;6418;50.824;4.718;2022-12-18T01:16:27;39.37;;;18.13;;
12707;SDS011;6418;50.824;4.718;2022-12-18T01:18:54;38.10;;;17.13;;
12707;SDS011;6418;50.824;4.718;2022-12-18T01:21:22;40.13;;;18.43;;
12707;SDS011;6418;50.824;4.718;2022-12-18T01:23:52;35.50;;;17.27;;
12707;SDS011;6418;50.824;4.718;2022-12-18T01:26:20;37.90;;;17.43;;
12707;SDS011;6418;50.824;4.718;2022-12-18T01:28:47;31.70;;;16.93;;
12707;SDS011;6418;50.824;4.718;2022-12-18T01:31:16;36.87;;;17.47;;
12707;SDS011;6418;50.824;4.718;2022-12-18T01:33:44;34.43;;;16.63;;
12707;SDS011;6418;50.824;4.718;2022-12-18T01:36:16;30.00;;;15.00;;
12707;SDS011;6418;50.824;4.718;2022-12-18T01:38:44;35.70;;;16.10;;
12707;SDS011;6418;50.824;4.718;2022-12-18T01:41:13;41.63;;;15.47;;
12707;SDS011;6418;50.824;4.718;2022-12-18T01:43:45;35.53;;;16.20;;
12707;SDS011;6418;50.824;4.718;2022-12-18T01:46:14;34.00;;;16.93;;
12707;SDS011;6418;50.824;4.718;2022-12-18T01:48:42;34.03;;;15.87;;
12707;SDS011;6418;50.824;4.718;2022-12-18T01:51:10;34.13;;;15.87;;
12707;SDS011;6418;50.824;4.718;2022-12-18T01:53:39;36.20;;;16.63;;
12707;SDS011;6418;50.824;4.718;2022-12-18T01:56:07;33.63;;;16.10;;
12707;SDS011;6418;50.824;4.718;2022-12-18T01:58:41;30.67;;;15.07;;
12707;SDS011;6418;50.824;4.718;2022-12-18T02:01:14;31.63;;;16.00;;
12707;SDS011;6418;50.824;4.718;2022-12-18T02:03:41;31.37;;;14.97;;
12707;SDS011;6418;50.824;4.718;2022-12-18T02:06:10;30.80;;;14.77;;
12707;SDS011;6418;50.824;4.718;2022-12-18T02:08:43;32.17;;;15.37;;
12707;SDS011;6418;50.824;4.718;2022-12-18T02:11:24;33.13;;;15.10;;
12707;SDS011;6418;50.824;4.718;2022-12-18T02:14:06;28.30;;;14.73;;
12707;SDS011;6418;50.824;4.718;2022-12-18T02:16:43;33.70;;;16.13;;
12707;SDS011;6418;50.824;4.718;2022-12-18T02:19:20;33.63;;;15.73;;
12707;SDS011;6418;50.824;4.718;2022-12-18T02:24:54;32.63;;;16.70;;
12707;SDS011;6418;50.824;4.718;2022-12-18T02:27:32;32.57;;;16.33;;
12707;SDS011;6418;50.824;4.718;2022-12-18T02:30:01;38.60;;;17.97;;
12707;SDS011;6418;50.824;4.718;2022-12-18T02:32:31;36.43;;;17.17;;
12707;SDS011;6418;50.824;4.718;2022-12-18T02:35:02;36.17;;;17.10;;
12707;SDS011;6418;50.824;4.718;2022-12-18T02:37:31;34.77;;;15.97;;
12707;SDS011;6418;50.824;4.718;2022-12-18T02:39:59;31.90;;;15.77;;
12707;SDS011;6418;50.824;4.718;2022-12-18T02:42:28;37.53;;;16.30;;
12707;SDS011;6418;50.824;4.718;2022-12-18T02:44:58;35.93;;;16.43;;
12707;SDS011;6418;50.824;4.718;2022-12-18T02:47:26;30.63;;;15.53;;
12707;SDS011;6418;50.824;4.718;2022-12-18T02:49:57;34.33;;;17.43;;
12707;SDS011;6418;50.824;4.718;2022-12-18T02:52:31;35.23;;;17.43;;
12707;SDS011;6418;50.824;4.718;2022-12-18T02:55:06;37.63;;;16.70;;
12707;SDS011;6418;50.824;4.718;2022-12-18T02:57:42;32.37;;;16.13;;
12707;SDS011;6418;50.824;4.718;2022-12-18T03:00:14;41.00;;;16.87;;
12707;SDS011;6418;50.824;4.718;2022-12-18T03:02:45;34.90;;;17.27;;
12707;SDS011;6418;50.824;4.718;2022-12-18T03:05:16;31.37;;;14.97;;
12707;SDS011;6418;50.824;4.718;2022-12-18T03:07:46;34.73;;;15.77;;
12707;SDS011;6418;50.824;4.718;2022-12-18T03:10:19;32.80;;;15.67;;
12707;SDS011;6418;50.824;4.718;2022-12-18T03:12:52;35.67;;;16.57;;
12707;SDS011;6418;50.824;4.718;2022-12-18T03:15:22;30.07;;;14.50;;
12707;SDS011;6418;50.824;4.718;2022-12-18T03:17:55;27.87;;;14.53;;
12707;SDS011;6418;50.824;4.718;2022-12-18T03:20:25;30.93;;;14.77;;
12707;SDS011;6418;50.824;4.718;2022-12-18T03:22:56;34.20;;;15.93;;
12707;SDS011;6418;50.824;4.718;2022-12-18T03:25:28;33.37;;;15.50;;
12707;SDS011;6418;50.824;4.718;2022-12-18T03:27:58;31.07;;;14.83;;
12707;SDS011;6418;50.824;4.718;2022-12-18T03:30:30;33.00;;;14.40;;
12707;SDS011;6418;50.824;4.718;2022-12-18T03:33:05;27.60;;;13.57;;
12707;SDS011;6418;50.824;4.718;2022-12-18T03:35:35;34.47;;;15.80;;
12707;SDS011;6418;50.824;4.718;2022-12-18T03:38:05;31.13;;;13.57;;
12707;SDS011;6418;50.824;4.718;2022-12-18T03:40:34;29.77;;;14.20;;
12707;SDS011;6418;50.824;4.718;2022-12-18T03:43:08;30.90;;;14.87;;
12707;SDS011;6418;50.824;4.718;2022-12-18T03:45:40;28.13;;;14.53;;
12707;SDS011;6418;50.824;4.718;2022-12-18T03:48:15;34.00;;;15.43;;
12707;SDS011;6418;50.824;4.718;2022-12-18T03:50:46;32.33;;;13.43;;
12707;SDS011;6418;50.824;4.718;2022-12-18T03:53:22;28.53;;;15.57;;
12707;SDS011;6418;50.824;4.718;2022-12-18T03:55:55;25.40;;;14.07;;
12707;SDS011;6418;50.824;4.718;2022-12-18T03:58:24;28.77;;;13.87;;
12707;SDS011;6418;50.824;4.718;2022-12-18T04:00:55;27.43;;;14.00;;
12707;SDS011;6418;50.824;4.718;2022-12-18T04:03:25;33.03;;;14.57;;
12707;SDS011;6418;50.824;4.718;2022-12-18T04:05:54;31.67;;;13.73;;
12707;SDS011;6418;50.824;4.718;2022-12-18T04:08:21;27.53;;;13.93;;
12707;SDS011;6418;50.824;4.718;2022-12-18T04:10:49;31.27;;;14.13;;
12707;SDS011;6418;50.824;4.718;2022-12-18T04:13:21;26.60;;;12.63;;
12707;SDS011;6418;50.824;4.718;2022-12-18T04:15:48;31.27;;;13.63;;
12707;SDS011;6418;50.824;4.718;2022-12-18T04:18:16;28.57;;;14.47;;
12707;SDS011;6418;50.824;4.718;2022-12-18T04:20:43;32.17;;;14.30;;
12707;SDS011;6418;50.824;4.718;2022-12-18T04:23:10;33.27;;;15.87;;
12707;SDS011;6418;50.824;4.718;2022-12-18T04:25:37;29.03;;;13.63;;
12707;SDS011;6418;50.824;4.718;2022-12-18T04:28:04;30.00;;;14.20;;
12707;SDS011;6418;50.824;4.718;2022-12-18T04:30:31;27.90;;;13.80;;
12707;SDS011;6418;50.824;4.718;2022-12-18T04:32:58;32.10;;;14.33;;
12707;SDS011;6418;50.824;4.718;2022-12-18T04:35:26;33.90;;;15.23;;
12707;SDS011;6418;50.824;4.718;2022-12-18T04:37:53;28.93;;;15.00;;
12707;SDS011;6418;50.824;4.718;2022-12-18T04:40:20;31.67;;;15.27;;
12707;SDS011;6418;50.824;4.718;2022-12-18T04:42:47;30.90;;;15.37;;
12707;SDS011;6418;50.824;4.718;2022-12-18T04:45:13;30.83;;;14.93;;
12707;SDS011;6418;50.824;4.718;2022-12-18T04:47:40;29.80;;;15.80;;
12707;SDS011;6418;50.824;4.718;2022-12-18T04:50:07;32.83;;;15.40;;
12707;SDS011;6418;50.824;4.718;2022-12-18T04:52:36;30.57;;;15.00;;
12707;SDS011;6418;50.824;4.718;2022-12-18T04:55:03;34.73;;;15.90;;
12707;SDS011;6418;50.824;4.718;2022-12-18T04:57:30;33.43;;;15.17;;
12707;SDS011;6418;50.824;4.718;2022-12-18T04:59:57;29.97;;;14.30;;
12707;SDS011;6418;50.824;4.718;2022-12-18T05:02:24;29.43;;;13.40;;
12707;SDS011;6418;50.824;4.718;2022-12-18T05:04:50;27.00;;;13.33;;
12707;SDS011;6418;50.824;4.718;2022-12-18T05:07:18;30.30;;;13.63;;
12707;SDS011;6418;50.824;4.718;2022-12-18T05:09:46;32.10;;;14.80;;
12707;SDS011;6418;50.824;4.718;2022-12-18T05:12:13;26.80;;;13.33;;
12707;SDS011;6418;50.824;4.718;2022-12-18T05:14:40;28.27;;;13.97;;
12707;SDS011;6418;50.824;4.718;2022-12-18T05:17:07;30.80;;;14.03;;
12707;SDS011;6418;50.824;4.718;2022-12-18T05:19:34;29.77;;;13.10;;
12707;SDS011;6418;50.824;4.718;2022-12-18T05:22:01;32.50;;;14.27;;
12707;SDS011;6418;50.824;4.718;2022-12-18T05:24:27;29.60;;;14.23;;
12707;SDS011;6418;50.824;4.718;2022-12-18T05:26:56;31.50;;;13.77;;
12707;SDS011;6418;50.824;4.718;2022-12-18T05:29:23;28.30;;;12.93;;
12707;SDS011;6418;50.824;4.718;2022-12-18T05:31:50;26.07;;;12.50;;
12707;SDS011;6418;50.824;4.718;2022-12-18T05:34:17;29.33;;;13.23;;
12707;SDS011;6418;50.824;4.718;2022-12-18T05:36:43;29.50;;;14.43;;
12707;SDS011;6418;50.824;4.718;2022-12-18T05:39:10;25.77;;;13.10;;
12707;SDS011;6418;50.824;4.718;2022-12-18T05:41:37;30.37;;;14.23;;
12707;SDS011;6418;50.824;4.718;2022-12-18T05:44:05;30.37;;;13.50;;
12707;SDS011;6418;50.824;4.718;2022-12-18T05:46:32;30.20;;;13.73;;
12707;SDS011;6418;50.824;4.718;2022-12-18T05:48:59;28.50;;;14.17;;
12707;SDS011;6418;50.824;4.718;2022-12-18T05:51:26;27.97;;;14.10;;
12707;SDS011;6418;50.824;4.718;2022-12-18T05:53:53;30.90;;;13.97;;
12707;SDS011;6418;50.824;4.718;2022-12-18T05:56:21;27.27;;;13.00;;
12707;SDS011;6418;50.824;4.718;2022-12-18T05:58:50;29.23;;;12.90;;
12707;SDS011;6418;50.824;4.718;2022-12-18T06:01:20;31.30;;;14.60;;
12707;SDS011;6418;50.824;4.718;2022-12-18T06:03:49;26.77;;;12.30;;
12707;SDS011;6418;50.824;4.718;2022-12-18T06:06:17;29.77;;;12.87;;
12707;SDS011;6418;50.824;4.718;2022-12-18T06:08:45;29.00;;;13.00;;
12707;SDS011;6418;50.824;4.718;2022-12-18T06:11:12;24.13;;;13.33;;
12707;SDS011;6418;50.824;4.718;2022-12-18T06:13:42;27.37;;;13.73;;
12707;SDS011;6418;50.824;4.718;2022-12-18T06:16:08;27.60;;;12.80;;
12707;SDS011;6418;50.824;4.718;2022-12-18T06:18:37;29.17;;;13.60;;
12707;SDS011;6418;50.824;4.718;2022-12-18T06:21:04;25.87;;;13.40;;
12707;SDS011;6418;50.824;4.718;2022-12-18T06:23:31;23.87;;;12.40;;
12707;SDS011;6418;50.824;4.718;2022-12-18T06:25:58;30.77;;;14.53;;
12707;SDS011;6418;50.824;4.718;2022-12-18T06:28:29;28.00;;;13.50;;
12707;SDS011;6418;50.824;4.718;2022-12-18T06:30:56;29.33;;;13.07;;
12707;SDS011;6418;50.824;4.718;2022-12-18T06:33:25;26.17;;;13.20;;
12707;SDS011;6418;50.824;4.718;2022-12-18T06:35:54;26.37;;;12.43;;
12707;SDS011;6418;50.824;4.718;2022-12-18T06:38:25;22.33;;;10.70;;
12707;SDS011;6418;50.824;4.718;2022-12-18T06:40:52;26.43;;;12.73;;
12707;SDS011;6418;50.824;4.718;2022-12-18T06:43:19;24.10;;;12.07;;
12707;SDS011;6418;50.824;4.718;2022-12-18T06:45:46;24.70;;;12.63;;
12707;SDS011;6418;50.824;4.718;2022-12-18T06:48:17;26.17;;;12.73;;
12707;SDS011;6418;50.824;4.718;2022-12-18T06:50:44;34.87;;;13.03;;
12707;SDS011;6418;50.824;4.718;2022-12-18T06:53:12;23.53;;;11.77;;
12707;SDS011;6418;50.824;4.718;2022-12-18T06:55:39;24.30;;;13.73;;
12707;SDS011;6418;50.824;4.718;2022-12-18T06:58:06;25.37;;;11.33;;
12707;SDS011;6418;50.824;4.718;2022-12-18T07:00:33;30.73;;;15.90;;
12707;SDS011;6418;50.824;4.718;2022-12-18T07:03:00;33.07;;;18.23;;
12707;SDS011;6418;50.824;4.718;2022-12-18T07:05:27;27.87;;;13.33;;
12707;SDS011;6418;50.824;4.718;2022-12-18T07:07:54;27.40;;;12.97;;
12707;SDS011;6418;50.824;4.718;2022-12-18T07:10:22;30.53;;;13.07;;
12707;SDS011;6418;50.824;4.718;2022-12-18T07:12:49;25.57;;;12.43;;
12707;SDS011;6418;50.824;4.718;2022-12-18T07:15:16;24.93;;;11.93;;
12707;SDS011;6418;50.824;4.718;2022-12-18T07:17:42;30.40;;;13.03;;
12707;SDS011;6418;50.824;4.718;2022-12-18T07:20:10;26.10;;;12.23;;
12707;SDS011;6418;50.824;4.718;2022-12-18T07:22:37;25.90;;;13.37;;
12707;SDS011;6418;50.824;4.718;2022-12-18T07:25:04;24.73;;;12.80;;
12707;SDS011;6418;50.824;4.718;2022-12-18T07:27:33;26.33;;;13.20;;
12707;SDS011;6418;50.824;4.718;2022-12-18T07:30:00;24.00;;;11.50;;
12707;SDS011;6418;50.824;4.718;2022-12-18T07:32:27;26.10;;;13.17;;
12707;SDS011;6418;50.824;4.718;2022-12-18T07:34:54;25.83;;;13.60;;
12707;SDS011;6418;50.824;4.718;2022-12-18T07:37:20;24.47;;;12.83;;
12707;SDS011;6418;50.824;4.718;2022-12-18T07:39:47;25.17;;;12.67;;
12707;SDS011;6418;50.824;4.718;2022-12-18T07:42:14;25.10;;;13.83;;
12707;SDS011;6418;50.824;4.718;2022-12-18T07:45:01;26.30;;;12.13;;
12707;SDS011;6418;50.824;4.718;2022-12-18T07:47:28;31.13;;;13.67;;
12707;SDS011;6418;50.824;4.718;2022-12-18T07:49:55;24.53;;;12.47;;
12707;SDS011;6418;50.824;4.718;2022-12-18T07:52:22;27.07;;;12.10;;
12707;SDS011;6418;50.824;4.718;2022-12-18T07:54:49;25.60;;;12.20;;
12707;SDS011;6418;50.824;4.718;2022-12-18T07:57:16;23.23;;;11.73;;
12707;SDS011;6418;50.824;4.718;2022-12-18T07:59:43;20.87;;;10.97;;
12707;SDS011;6418;50.824;4.718;2022-12-18T08:02:11;21.00;;;10.03;;
12707;SDS011;6418;50.824;4.718;2022-12-18T08:04:38;20.10;;;9.40;;
12707;SDS011;6418;50.824;4.718;2022-12-18T08:07:05;24.00;;;9.90;;
12707;SDS011;6418;50.824;4.718;2022-12-18T08:09:31;20.23;;;9.63;;
12707;SDS011;6418;50.824;4.718;2022-12-18T08:11:58;19.60;;;9.17;;
12707;SDS011;6418;50.824;4.718;2022-12-18T08:14:25;17.27;;;9.23;;
12707;SDS011;6418;50.824;4.718;2022-12-18T08:16:52;21.23;;;9.00;;
12707;SDS011;6418;50.824;4.718;2022-12-18T08:19:20;19.50;;;9.30;;
12707;SDS011;6418;50.824;4.718;2022-12-18T08:21:47;16.47;;;8.87;;
12707;SDS011;6418;50.824;4.718;2022-12-18T08:24:14;16.77;;;9.07;;
12707;SDS011;6418;50.824;4.718;2022-12-18T08:26:41;20.90;;;9.67;;
12707;SDS011;6418;50.824;4.718;2022-12-18T08:29:08;18.10;;;9.30;;
12707;SDS011;6418;50.824;4.718;2022-12-18T08:31:35;14.97;;;7.80;;
12707;SDS011;6418;50.824;4.718;2022-12-18T08:34:02;20.60;;;9.00;;
12707;SDS011;6418;50.824;4.718;2022-12-18T08:36:31;18.47;;;8.93;;
12707;SDS011;6418;50.824;4.718;2022-12-18T08:38:57;19.67;;;8.80;;
12707;SDS011;6418;50.824;4.718;2022-12-18T08:41:24;19.13;;;9.03;;
12707;SDS011;6418;50.824;4.718;2022-12-18T08:43:51;17.60;;;8.90;;
12707;SDS011;6418;50.824;4.718;2022-12-18T08:46:36;19.10;;;8.60;;
12707;SDS011;6418;50.824;4.718;2022-12-18T08:49:04;18.47;;;8.63;;
12707;SDS011;6418;50.824;4.718;2022-12-18T08:51:34;17.00;;;8.13;;
12707;SDS011;6418;50.824;4.718;2022-12-18T08:54:01;18.43;;;8.73;;
12707;SDS011;6418;50.824;4.718;2022-12-18T08:56:29;19.33;;;9.13;;
12707;SDS011;6418;50.824;4.718;2022-12-18T08:58:56;17.90;;;8.37;;
12707;SDS011;6418;50.824;4.718;2022-12-18T09:01:23;18.70;;;9.50;;
12707;SDS011;6418;50.824;4.718;2022-12-18T09:03:50;21.03;;;10.27;;
12707;SDS011;6418;50.824;4.718;2022-12-18T09:06:18;18.93;;;9.93;;
12707;SDS011;6418;50.824;4.718;2022-12-18T09:08:48;18.70;;;8.77;;
12707;SDS011;6418;50.824;4.718;2022-12-18T09:11:15;16.87;;;8.37;;
12707;SDS011;6418;50.824;4.718;2022-12-18T09:13:46;21.60;;;9.93;;
12707;SDS011;6418;50.824;4.718;2022-12-18T09:16:13;20.53;;;8.87;;
12707;SDS011;6418;50.824;4.718;2022-12-18T09:18:40;20.70;;;9.60;;
12707;SDS011;6418;50.824;4.718;2022-12-18T09:21:08;19.43;;;9.77;;
12707;SDS011;6418;50.824;4.718;2022-12-18T09:23:36;21.93;;;10.97;;
12707;SDS011;6418;50.824;4.718;2022-12-18T09:26:04;19.93;;;9.60;;
12707;SDS011;6418;50.824;4.718;2022-12-18T09:28:31;23.27;;;11.23;;
12707;SDS011;6418;50.824;4.718;2022-12-18T09:30:58;24.77;;;13.50;;
12707;SDS011;6418;50.824;4.718;2022-12-18T09:33:25;24.00;;;11.57;;
12707;SDS011;6418;50.824;4.718;2022-12-18T09:35:52;21.20;;;10.40;;
12707;SDS011;6418;50.824;4.718;2022-12-18T09:38:19;24.37;;;10.57;;
12707;SDS011;6418;50.824;4.718;2022-12-18T09:40:48;24.10;;;11.23;;
12707;SDS011;6418;50.824;4.718;2022-12-18T09:43:18;21.73;;;11.40;;
12707;SDS011;6418;50.824;4.718;2022-12-18T09:45:49;23.63;;;11.17;;
12707;SDS011;6418;50.824;4.718;2022-12-18T09:48:20;22.57;;;11.57;;
12707;SDS011;6418;50.824;4.718;2022-12-18T09:50:51;23.70;;;12.10;;
12707;SDS011;6418;50.824;4.718;2022-12-18T09:53:24;23.70;;;11.70;;
12707;SDS011;6418;50.824;4.718;2022-12-18T09:55:55;23.53;;;12.33;;
12707;SDS011;6418;50.824;4.718;2022-12-18T09:58:26;29.00;;;12.90;;
12707;SDS011;6418;50.824;4.718;2022-12-18T10:00:57;23.20;;;11.63;;
12707;SDS011;6418;50.824;4.718;2022-12-18T10:03:24;24.67;;;13.03;;
12707;SDS011;6418;50.824;4.718;2022-12-18T10:05:55;25.30;;;12.70;;
12707;SDS011;6418;50.824;4.718;2022-12-18T10:08:30;30.97;;;13.10;;
12707;SDS011;6418;50.824;4.718;2022-12-18T10:11:15;24.47;;;12.57;;
12707;SDS011;6418;50.824;4.718;2022-12-18T10:13:55;29.17;;;13.80;;
12707;SDS011;6418;50.824;4.718;2022-12-18T10:16:27;26.43;;;13.00;;
12707;SDS011;6418;50.824;4.718;2022-12-18T10:19:01;24.07;;;13.40;;
12707;SDS011;6418;50.824;4.718;2022-12-18T10:21:39;23.77;;;12.93;;
12707;SDS011;6418;50.824;4.718;2022-12-18T10:24:13;27.27;;;13.57;;
12707;SDS011;6418;50.824;4.718;2022-12-18T10:26:48;24.73;;;13.30;;
12707;SDS011;6418;50.824;4.718;2022-12-18T10:29:16;26.80;;;13.27;;
12707;SDS011;6418;50.824;4.718;2022-12-18T10:31:43;31.00;;;14.57;;
12707;SDS011;6418;50.824;4.718;2022-12-18T10:34:10;25.03;;;12.70;;
12707;SDS011;6418;50.824;4.718;2022-12-18T10:36:38;27.43;;;13.67;;
12707;SDS011;6418;50.824;4.718;2022-12-18T10:39:14;28.63;;;14.10;;
12707;SDS011;6418;50.824;4.718;2022-12-18T10:41:42;30.47;;;14.90;;
12707;SDS011;6418;50.824;4.718;2022-12-18T10:44:10;27.17;;;14.30;;
12707;SDS011;6418;50.824;4.718;2022-12-18T10:46:43;30.67;;;15.47;;
12707;SDS011;6418;50.824;4.718;2022-12-18T10:49:24;29.63;;;15.60;;
12707;SDS011;6418;50.824;4.718;2022-12-18T10:52:03;30.47;;;15.80;;
12707;SDS011;6418;50.824;4.718;2022-12-18T10:54:37;28.77;;;14.67;;
12707;SDS011;6418;50.824;4.718;2022-12-18T10:59:58;31.50;;;15.37;;
12707;SDS011;6418;50.824;4.718;2022-12-18T11:02:28;32.60;;;16.93;;
12707;SDS011;6418;50.824;4.718;2022-12-18T11:05:02;30.70;;;15.80;;
12707;SDS011;6418;50.824;4.718;2022-12-18T11:07:48;30.37;;;15.33;;
12707;SDS011;6418;50.824;4.718;2022-12-18T11:10:19;32.60;;;15.43;;
12707;SDS011;6418;50.824;4.718;2022-12-18T11:12:47;38.60;;;18.23;;
12707;SDS011;6418;50.824;4.718;2022-12-18T11:15:15;34.20;;;17.33;;
12707;SDS011;6418;50.824;4.718;2022-12-18T11:17:46;32.57;;;15.77;;
12707;SDS011;6418;50.824;4.718;2022-12-18T11:20:23;33.00;;;16.63;;
12707;SDS011;6418;50.824;4.718;2022-12-18T11:22:57;32.27;;;16.67;;
12707;SDS011;6418;50.824;4.718;2022-12-18T11:25:25;31.17;;;16.77;;
12707;SDS011;6418;50.824;4.718;2022-12-18T11:27:54;37.70;;;17.70;;
12707;SDS011;6418;50.824;4.718;2022-12-18T11:30:23;37.83;;;19.00;;
12707;SDS011;6418;50.824;4.718;2022-12-18T11:32:53;34.63;;;17.27;;
12707;SDS011;6418;50.824;4.718;2022-12-18T11:35:32;37.07;;;17.73;;
12707;SDS011;6418;50.824;4.718;2022-12-18T11:38:06;36.30;;;17.83;;
12707;SDS011;6418;50.824;4.718;2022-12-18T11:40:40;34.23;;;17.10;;
12707;SDS011;6418;50.824;4.718;2022-12-18T11:43:11;33.53;;;17.03;;
12707;SDS011;6418;50.824;4.718;2022-12-18T11:45:43;38.13;;;18.93;;
12707;SDS011;6418;50.824;4.718;2022-12-18T11:48:18;35.07;;;18.00;;
12707;SDS011;6418;50.824;4.718;2022-12-18T11:50:50;34.73;;;18.07;;
12707;SDS011;6418;50.824;4.718;2022-12-18T11:53:18;39.23;;;18.53;;
12707;SDS011;6418;50.824;4.718;2022-12-18T11:55:51;37.47;;;18.30;;
12707;SDS011;6418;50.824;4.718;2022-12-18T11:58:32;32.87;;;17.17;;
12707;SDS011;6418;50.824;4.718;2022-12-18T12:01:11;36.67;;;18.67;;
12707;SDS011;6418;50.824;4.718;2022-12-18T12:03:59;34.20;;;18.13;;
12707;SDS011;6418;50.824;4.718;2022-12-18T12:06:35;37.20;;;18.30;;
12707;SDS011;6418;50.824;4.718;2022-12-18T12:09:11;43.03;;;19.87;;
12707;SDS011;6418;50.824;4.718;2022-12-18T12:11:47;34.83;;;18.93;;
12707;SDS011;6418;50.824;4.718;2022-12-18T12:14:43;42.10;;;19.67;;
12707;SDS011;6418;50.824;4.718;2022-12-18T12:17:21;39.30;;;19.33;;
12707;SDS011;6418;50.824;4.718;2022-12-18T12:19:59;38.70;;;19.23;;
12707;SDS011;6418;50.824;4.718;2022-12-18T12:22:35;40.30;;;20.60;;
12707;SDS011;6418;50.824;4.718;2022-12-18T12:28:00;37.37;;;18.10;;
12707;SDS011;6418;50.824;4.718;2022-12-18T12:30:39;39.60;;;19.13;;
12707;SDS011;6418;50.824;4.718;2022-12-18T12:33:22;41.20;;;19.93;;
12707;SDS011;6418;50.824;4.718;2022-12-18T12:36:01;44.57;;;22.00;;
12707;SDS011;6418;50.824;4.718;2022-12-18T12:38:33;41.83;;;20.97;;
12707;SDS011;6418;50.824;4.718;2022-12-18T12:41:04;39.90;;;20.20;;
12707;SDS011;6418;50.824;4.718;2022-12-18T12:43:54;45.27;;;20.87;;
12707;SDS011;6418;50.824;4.718;2022-12-18T12:46:23;48.93;;;22.10;;
12707;SDS011;6418;50.824;4.718;2022-12-18T12:48:51;47.13;;;23.40;;
12707;SDS011;6418;50.824;4.718;2022-12-18T12:51:24;50.60;;;24.67;;
12707;SDS011;6418;50.824;4.718;2022-12-18T12:53:54;45.40;;;21.77;;
12707;SDS011;6418;50.824;4.718;2022-12-18T12:56:22;49.50;;;23.10;;
12707;SDS011;6418;50.824;4.718;2022-12-18T12:58:55;49.30;;;25.03;;
12707;SDS011;6418;50.824;4.718;2022-12-18T13:01:28;48.70;;;22.77;;
12707;SDS011;6418;50.824;4.718;2022-12-18T13:04:07;47.57;;;22.90;;
12707;SDS011;6418;50.824;4.718;2022-12-18T13:06:44;44.43;;;22.47;;
12707;SDS011;6418;50.824;4.718;2022-12-18T13:09:16;43.73;;;22.03;;
12707;SDS011;6418;50.824;4.718;2022-12-18T13:11:43;47.37;;;22.90;;
12707;SDS011;6418;50.824;4.718;2022-12-18T13:14:29;48.80;;;23.10;;
12707;SDS011;6418;50.824;4.718;2022-12-18T13:17:17;48.20;;;24.03;;
12707;SDS011;6418;50.824;4.718;2022-12-18T13:20:03;46.13;;;23.47;;
12707;SDS011;6418;50.824;4.718;2022-12-18T13:22:36;45.00;;;22.73;;
12707;SDS011;6418;50.824;4.718;2022-12-18T13:28:02;45.00;;;23.17;;
12707;SDS011;6418;50.824;4.718;2022-12-18T13:30:52;44.23;;;21.77;;
12707;SDS011;6418;50.824;4.718;2022-12-18T13:33:35;46.23;;;21.67;;
12707;SDS011;6418;50.824;4.718;2022-12-18T13:36:15;46.07;;;23.50;;
12707;SDS011;6418;50.824;4.718;2022-12-18T13:41:47;41.93;;;20.57;;
12707;SDS011;6418;50.824;4.718;2022-12-18T13:44:21;42.33;;;21.23;;
12707;SDS011;6418;50.824;4.718;2022-12-18T13:46:51;40.03;;;21.23;;
12707;SDS011;6418;50.824;4.718;2022-12-18T13:49:20;44.93;;;23.47;;
12707;SDS011;6418;50.824;4.718;2022-12-18T13:51:50;40.27;;;21.43;;
12707;SDS011;6418;50.824;4.718;2022-12-18T13:54:22;38.73;;;20.73;;
12707;SDS011;6418;50.824;4.718;2022-12-18T13:56:54;38.10;;;19.37;;
12707;SDS011;6418;50.824;4.718;2022-12-18T13:59:22;38.00;;;20.00;;
12707;SDS011;6418;50.824;4.718;2022-12-18T14:01:51;38.43;;;18.83;;
12707;SDS011;6418;50.824;4.718;2022-12-18T14:04:21;35.50;;;19.30;;
12707;SDS011;6418;50.824;4.718;2022-12-18T14:06:51;34.67;;;18.47;;
12707;SDS011;6418;50.824;4.718;2022-12-18T14:09:23;34.80;;;18.60;;
12707;SDS011;6418;50.824;4.718;2022-12-18T14:11:52;35.20;;;19.03;;
12707;SDS011;6418;50.824;4.718;2022-12-18T14:14:42;37.27;;;18.77;;
12707;SDS011;6418;50.824;4.718;2022-12-18T14:17:12;38.33;;;18.70;;
12707;SDS011;6418;50.824;4.718;2022-12-18T14:19:41;34.20;;;18.10;;
12707;SDS011;6418;50.824;4.718;2022-12-18T14:22:14;35.10;;;19.53;;
12707;SDS011;6418;50.824;4.718;2022-12-18T14:24:44;36.70;;;18.07;;
12707;SDS011;6418;50.824;4.718;2022-12-18T14:27:12;37.47;;;18.93;;
12707;SDS011;6418;50.824;4.718;2022-12-18T14:29:46;33.90;;;17.73;;
12707;SDS011;6418;50.824;4.718;2022-12-18T14:32:14;35.37;;;17.47;;
12707;SDS011;6418;50.824;4.718;2022-12-18T14:34:43;34.60;;;17.73;;
12707;SDS011;6418;50.824;4.718;2022-12-18T14:37:11;37.30;;;18.70;;
12707;SDS011;6418;50.824;4.718;2022-12-18T14:39:41;39.87;;;19.50;;
12707;SDS011;6418;50.824;4.718;2022-12-18T14:42:20;34.53;;;17.97;;
12707;SDS011;6418;50.824;4.718;2022-12-18T14:44:47;36.70;;;18.30;;
12707;SDS011;6418;50.824;4.718;2022-12-18T14:47:14;37.67;;;19.57;;
12707;SDS011;6418;50.824;4.718;2022-12-18T14:49:42;36.27;;;17.77;;
12707;SDS011;6418;50.824;4.718;2022-12-18T14:52:15;35.37;;;18.13;;
12707;SDS011;6418;50.824;4.718;2022-12-18T14:54:47;33.57;;;17.63;;
12707;SDS011;6418;50.824;4.718;2022-12-18T14:57:17;34.40;;;17.43;;
12707;SDS011;6418;50.824;4.718;2022-12-18T14:59:48;33.33;;;17.00;;
12707;SDS011;6418;50.824;4.718;2022-12-18T15:02:18;35.23;;;17.70;;
12707;SDS011;6418;50.824;4.718;2022-12-18T15:04:47;35.57;;;18.70;;
12707;SDS011;6418;50.824;4.718;2022-12-18T15:07:25;37.10;;;17.47;;